sensor_id;sensor_type;location;lat;lon;timestamp;P1;durP1;ratioP1;P2;durP2;ratioP2
41229;SDS011;26964;50.428;19.218;2023-12-14T00:00:07;59.1;;;30.3;;
41229;SDS011;26964;50.428;19.218;2023-12-14T00:01:07;57.8;;;31.2;;
41229;SDS011;26964;50.428;19.218;2023-12-14T00:02:07;55.6;;;31.1;;
41229;SDS011;26964;50.428;19.218;2023-12-14T00:03:07;58.0;;;31.2;;
41229;SDS011;26964;50.428;19.218;2023-12-14T00:04:08;59.8;;;32.5;;
41229;SDS011;26964;50.428;19.218;2023-12-14T00:05:07;59.4;;;30.9;;
41229;SDS011;26964;50.428;19.218;2023-12-14T00:06:07;59.8;;;30.6;;
41229;SDS011;26964;50.428;19.218;2023-12-14T00:07:07;61.7;;;30.3;;
41229;SDS011;26964;50.428;19.218;2023-12-14T00:08:07;59.4;;;30.7;;
41229;SDS011;26964;50.428;19.218;2023-12-14T00:09:07;63.7;;;32.1;;
41229;SDS011;26964;50.428;19.218;2023-12-14T00:10:07;61.1;;;30.9;;
41229;SDS011;26964;50.428;19.218;2023-12-14T00:11:08;61.6;;;32.5;;
41229;SDS011;26964;50.428;19.218;2023-12-14T00:12:07;63.1;;;33.1;;
41229;SDS011;26964;50.428;19.218;2023-12-14T00:13:07;64.7;;;32.6;;
41229;SDS011;26964;50.428;19.218;2023-12-14T00:14:07;62.0;;;33.5;;
41229;SDS011;26964;50.428;19.218;2023-12-14T00:15:07;61.1;;;31.8;;
41229;SDS011;26964;50.428;19.218;2023-12-14T00:16:07;61.7;;;32.7;;
41229;SDS011;26964;50.428;19.218;2023-12-14T00:17:07;63.3;;;33.6;;
41229;SDS011;26964;50.428;19.218;2023-12-14T00:18:07;65.2;;;34.6;;
41229;SDS011;26964;50.428;19.218;2023-12-14T00:19:07;63.9;;;33.8;;
41229;SDS011;26964;50.428;19.218;2023-12-14T00:20:09;60.7;;;32.1;;
41229;SDS011;26964;50.428;19.218;2023-12-14T00:21:07;60.5;;;31.8;;
41229;SDS011;26964;50.428;19.218;2023-12-14T00:22:07;65.0;;;33.6;;
41229;SDS011;26964;50.428;19.218;2023-12-14T00:23:07;64.2;;;34.2;;
41229;SDS011;26964;50.428;19.218;2023-12-14T00:24:07;62.7;;;32.4;;
41229;SDS011;26964;50.428;19.218;2023-12-14T00:25:07;58.8;;;30.4;;
41229;SDS011;26964;50.428;19.218;2023-12-14T00:26:07;62.6;;;32.1;;
41229;SDS011;26964;50.428;19.218;2023-12-14T00:27:07;65.7;;;33.7;;
41229;SDS011;26964;50.428;19.218;2023-12-14T00:28:07;60.1;;;31.2;;
41229;SDS011;26964;50.428;19.218;2023-12-14T00:29:07;60.5;;;31.8;;
41229;SDS011;26964;50.428;19.218;2023-12-14T00:30:08;63.9;;;32.3;;
41229;SDS011;26964;50.428;19.218;2023-12-14T00:31:07;61.9;;;32.2;;
41229;SDS011;26964;50.428;19.218;2023-12-14T00:32:07;61.3;;;31.3;;
41229;SDS011;26964;50.428;19.218;2023-12-14T00:33:07;64.6;;;32.9;;
41229;SDS011;26964;50.428;19.218;2023-12-14T00:34:07;60.9;;;30.4;;
41229;SDS011;26964;50.428;19.218;2023-12-14T00:35:07;65.0;;;33.0;;
41229;SDS011;26964;50.428;19.218;2023-12-14T00:36:07;61.5;;;32.1;;
41229;SDS011;26964;50.428;19.218;2023-12-14T00:37:07;61.1;;;32.4;;
41229;SDS011;26964;50.428;19.218;2023-12-14T00:38:07;60.9;;;31.6;;
41229;SDS011;26964;50.428;19.218;2023-12-14T00:39:07;56.0;;;29.8;;
41229;SDS011;26964;50.428;19.218;2023-12-14T00:40:07;62.4;;;31.0;;
41229;SDS011;26964;50.428;19.218;2023-12-14T00:41:09;60.8;;;31.3;;
41229;SDS011;26964;50.428;19.218;2023-12-14T00:42:07;61.3;;;31.3;;
41229;SDS011;26964;50.428;19.218;2023-12-14T00:43:07;60.9;;;31.7;;
41229;SDS011;26964;50.428;19.218;2023-12-14T00:44:07;63.7;;;32.8;;
41229;SDS011;26964;50.428;19.218;2023-12-14T00:45:08;65.7;;;33.0;;
41229;SDS011;26964;50.428;19.218;2023-12-14T00:46:07;58.4;;;30.4;;
41229;SDS011;26964;50.428;19.218;2023-12-14T00:47:07;60.0;;;32.0;;
41229;SDS011;26964;50.428;19.218;2023-12-14T00:48:07;64.2;;;33.2;;
41229;SDS011;26964;50.428;19.218;2023-12-14T00:49:07;61.8;;;31.2;;
41229;SDS011;26964;50.428;19.218;2023-12-14T00:50:07;59.4;;;32.4;;
41229;SDS011;26964;50.428;19.218;2023-12-14T00:51:07;59.2;;;31.7;;
41229;SDS011;26964;50.428;19.218;2023-12-14T00:52:07;58.1;;;30.8;;
41229;SDS011;26964;50.428;19.218;2023-12-14T00:53:07;55.2;;;31.2;;
41229;SDS011;26964;50.428;19.218;2023-12-14T00:54:07;59.6;;;30.6;;
41229;SDS011;26964;50.428;19.218;2023-12-14T00:55:07;58.3;;;29.9;;
41229;SDS011;26964;50.428;19.218;2023-12-14T00:56:07;61.4;;;31.6;;
41229;SDS011;26964;50.428;19.218;2023-12-14T00:57:07;56.7;;;29.6;;
41229;SDS011;26964;50.428;19.218;2023-12-14T00:58:07;54.4;;;29.2;;
41229;SDS011;26964;50.428;19.218;2023-12-14T00:59:07;52.3;;;28.8;;
41229;SDS011;26964;50.428;19.218;2023-12-14T01:00:07;56.7;;;29.4;;
41229;SDS011;26964;50.428;19.218;2023-12-14T01:01:07;58.4;;;30.3;;
41229;SDS011;26964;50.428;19.218;2023-12-14T01:02:09;57.8;;;30.8;;
41229;SDS011;26964;50.428;19.218;2023-12-14T01:03:07;56.1;;;30.7;;
41229;SDS011;26964;50.428;19.218;2023-12-14T01:04:07;52.9;;;29.8;;
41229;SDS011;26964;50.428;19.218;2023-12-14T01:05:07;55.1;;;30.1;;
41229;SDS011;26964;50.428;19.218;2023-12-14T01:06:07;59.2;;;30.7;;
41229;SDS011;26964;50.428;19.218;2023-12-14T01:07:07;53.4;;;29.3;;
41229;SDS011;26964;50.428;19.218;2023-12-14T01:08:07;53.6;;;28.4;;
41229;SDS011;26964;50.428;19.218;2023-12-14T01:09:07;52.3;;;29.3;;
41229;SDS011;26964;50.428;19.218;2023-12-14T01:10:07;52.3;;;27.8;;
41229;SDS011;26964;50.428;19.218;2023-12-14T01:11:07;49.7;;;28.2;;
41229;SDS011;26964;50.428;19.218;2023-12-14T01:12:07;49.3;;;28.2;;
41229;SDS011;26964;50.428;19.218;2023-12-14T01:13:07;55.7;;;29.8;;
41229;SDS011;26964;50.428;19.218;2023-12-14T01:14:07;54.3;;;30.2;;
41229;SDS011;26964;50.428;19.218;2023-12-14T01:15:07;49.2;;;28.4;;
41229;SDS011;26964;50.428;19.218;2023-12-14T01:16:07;58.1;;;30.2;;
41229;SDS011;26964;50.428;19.218;2023-12-14T01:17:07;59.5;;;31.4;;
41229;SDS011;26964;50.428;19.218;2023-12-14T01:18:07;58.9;;;31.5;;
41229;SDS011;26964;50.428;19.218;2023-12-14T01:19:07;69.7;;;34.6;;
41229;SDS011;26964;50.428;19.218;2023-12-14T01:20:07;67.9;;;34.7;;
41229;SDS011;26964;50.428;19.218;2023-12-14T01:21:07;74.8;;;35.8;;
41229;SDS011;26964;50.428;19.218;2023-12-14T01:22:07;70.0;;;35.2;;
41229;SDS011;26964;50.428;19.218;2023-12-14T01:23:09;71.1;;;35.4;;
41229;SDS011;26964;50.428;19.218;2023-12-14T01:24:07;75.0;;;36.8;;
41229;SDS011;26964;50.428;19.218;2023-12-14T01:25:07;80.2;;;39.3;;
41229;SDS011;26964;50.428;19.218;2023-12-14T01:26:07;71.3;;;36.6;;
41229;SDS011;26964;50.428;19.218;2023-12-14T01:27:07;73.7;;;36.4;;
41229;SDS011;26964;50.428;19.218;2023-12-14T01:28:07;64.9;;;33.3;;
41229;SDS011;26964;50.428;19.218;2023-12-14T01:29:07;66.8;;;35.4;;
41229;SDS011;26964;50.428;19.218;2023-12-14T01:30:07;73.4;;;35.2;;
41229;SDS011;26964;50.428;19.218;2023-12-14T01:31:07;63.9;;;32.9;;
41229;SDS011;26964;50.428;19.218;2023-12-14T01:32:07;70.4;;;34.1;;
41229;SDS011;26964;50.428;19.218;2023-12-14T01:33:07;66.6;;;33.9;;
41229;SDS011;26964;50.428;19.218;2023-12-14T01:34:07;68.5;;;34.8;;
41229;SDS011;26964;50.428;19.218;2023-12-14T01:35:07;66.4;;;35.0;;
41229;SDS011;26964;50.428;19.218;2023-12-14T01:36:07;65.9;;;35.1;;
41229;SDS011;26964;50.428;19.218;2023-12-14T01:37:07;65.8;;;35.1;;
41229;SDS011;26964;50.428;19.218;2023-12-14T01:38:07;68.6;;;36.6;;
41229;SDS011;26964;50.428;19.218;2023-12-14T01:39:07;70.4;;;36.9;;
41229;SDS011;26964;50.428;19.218;2023-12-14T01:40:07;73.6;;;36.9;;
41229;SDS011;26964;50.428;19.218;2023-12-14T01:41:07;75.1;;;37.3;;
41229;SDS011;26964;50.428;19.218;2023-12-14T01:42:07;73.5;;;36.3;;
41229;SDS011;26964;50.428;19.218;2023-12-14T01:43:07;73.0;;;36.8;;
41229;SDS011;26964;50.428;19.218;2023-12-14T01:44:09;70.2;;;36.2;;
41229;SDS011;26964;50.428;19.218;2023-12-14T01:45:07;73.3;;;36.7;;
41229;SDS011;26964;50.428;19.218;2023-12-14T01:46:07;73.1;;;37.4;;
41229;SDS011;26964;50.428;19.218;2023-12-14T01:47:07;79.3;;;38.4;;
41229;SDS011;26964;50.428;19.218;2023-12-14T01:48:07;97.8;;;46.4;;
41229;SDS011;26964;50.428;19.218;2023-12-14T01:49:07;76.3;;;39.4;;
41229;SDS011;26964;50.428;19.218;2023-12-14T01:50:07;69.4;;;34.6;;
41229;SDS011;26964;50.428;19.218;2023-12-14T01:51:07;67.8;;;35.6;;
41229;SDS011;26964;50.428;19.218;2023-12-14T01:52:07;71.5;;;36.0;;
41229;SDS011;26964;50.428;19.218;2023-12-14T01:53:07;66.0;;;35.9;;
41229;SDS011;26964;50.428;19.218;2023-12-14T01:54:07;68.5;;;35.6;;
41229;SDS011;26964;50.428;19.218;2023-12-14T01:55:07;68.5;;;36.3;;
41229;SDS011;26964;50.428;19.218;2023-12-14T01:56:07;68.5;;;34.1;;
41229;SDS011;26964;50.428;19.218;2023-12-14T01:57:07;70.8;;;34.3;;
41229;SDS011;26964;50.428;19.218;2023-12-14T01:58:07;65.4;;;33.3;;
41229;SDS011;26964;50.428;19.218;2023-12-14T01:59:07;62.0;;;31.9;;
41229;SDS011;26964;50.428;19.218;2023-12-14T02:00:07;69.6;;;34.1;;
41229;SDS011;26964;50.428;19.218;2023-12-14T02:01:08;62.5;;;33.2;;
41229;SDS011;26964;50.428;19.218;2023-12-14T02:02:07;60.1;;;30.9;;
41229;SDS011;26964;50.428;19.218;2023-12-14T02:03:07;60.6;;;32.1;;
41229;SDS011;26964;50.428;19.218;2023-12-14T02:04:07;59.1;;;31.0;;
41229;SDS011;26964;50.428;19.218;2023-12-14T02:05:09;61.9;;;31.5;;
41229;SDS011;26964;50.428;19.218;2023-12-14T02:06:07;57.3;;;29.8;;
41229;SDS011;26964;50.428;19.218;2023-12-14T02:07:07;53.9;;;30.3;;
41229;SDS011;26964;50.428;19.218;2023-12-14T02:08:07;57.0;;;30.1;;
41229;SDS011;26964;50.428;19.218;2023-12-14T02:09:07;53.0;;;27.7;;
41229;SDS011;26964;50.428;19.218;2023-12-14T02:10:07;53.5;;;27.8;;
41229;SDS011;26964;50.428;19.218;2023-12-14T02:11:07;57.1;;;29.9;;
41229;SDS011;26964;50.428;19.218;2023-12-14T02:12:07;54.9;;;29.8;;
41229;SDS011;26964;50.428;19.218;2023-12-14T02:13:07;54.3;;;28.4;;
41229;SDS011;26964;50.428;19.218;2023-12-14T02:14:08;55.3;;;28.6;;
41229;SDS011;26964;50.428;19.218;2023-12-14T02:15:07;58.2;;;30.4;;
41229;SDS011;26964;50.428;19.218;2023-12-14T02:16:07;56.7;;;29.4;;
41229;SDS011;26964;50.428;19.218;2023-12-14T02:17:07;56.3;;;29.4;;
41229;SDS011;26964;50.428;19.218;2023-12-14T02:18:07;58.8;;;30.0;;
41229;SDS011;26964;50.428;19.218;2023-12-14T02:19:07;54.1;;;27.9;;
41229;SDS011;26964;50.428;19.218;2023-12-14T02:20:07;55.6;;;29.1;;
41229;SDS011;26964;50.428;19.218;2023-12-14T02:21:07;57.6;;;29.8;;
41229;SDS011;26964;50.428;19.218;2023-12-14T02:22:07;54.9;;;29.6;;
41229;SDS011;26964;50.428;19.218;2023-12-14T02:23:07;50.0;;;27.4;;
41229;SDS011;26964;50.428;19.218;2023-12-14T02:24:07;50.7;;;28.8;;
41229;SDS011;26964;50.428;19.218;2023-12-14T02:25:07;48.1;;;27.2;;
41229;SDS011;26964;50.428;19.218;2023-12-14T02:26:09;53.9;;;28.4;;
41229;SDS011;26964;50.428;19.218;2023-12-14T02:27:07;50.7;;;28.1;;
41229;SDS011;26964;50.428;19.218;2023-12-14T02:28:07;46.8;;;24.9;;
41229;SDS011;26964;50.428;19.218;2023-12-14T02:29:07;50.6;;;25.9;;
41229;SDS011;26964;50.428;19.218;2023-12-14T02:30:07;47.0;;;24.0;;
41229;SDS011;26964;50.428;19.218;2023-12-14T02:31:07;51.2;;;26.8;;
41229;SDS011;26964;50.428;19.218;2023-12-14T02:32:07;51.9;;;26.1;;
41229;SDS011;26964;50.428;19.218;2023-12-14T02:33:07;48.7;;;26.4;;
41229;SDS011;26964;50.428;19.218;2023-12-14T02:34:07;52.1;;;26.8;;
41229;SDS011;26964;50.428;19.218;2023-12-14T02:35:07;45.7;;;24.2;;
41229;SDS011;26964;50.428;19.218;2023-12-14T02:36:07;47.6;;;25.1;;
41229;SDS011;26964;50.428;19.218;2023-12-14T02:37:07;46.8;;;25.3;;
41229;SDS011;26964;50.428;19.218;2023-12-14T02:38:07;46.4;;;25.4;;
41229;SDS011;26964;50.428;19.218;2023-12-14T02:39:07;45.4;;;25.6;;
41229;SDS011;26964;50.428;19.218;2023-12-14T02:40:07;54.4;;;26.7;;
41229;SDS011;26964;50.428;19.218;2023-12-14T02:41:07;49.2;;;25.9;;
41229;SDS011;26964;50.428;19.218;2023-12-14T02:42:07;47.5;;;25.9;;
41229;SDS011;26964;50.428;19.218;2023-12-14T02:43:07;50.7;;;26.0;;
41229;SDS011;26964;50.428;19.218;2023-12-14T02:44:07;46.5;;;24.7;;
41229;SDS011;26964;50.428;19.218;2023-12-14T02:45:07;47.6;;;24.2;;
41229;SDS011;26964;50.428;19.218;2023-12-14T02:46:07;44.2;;;24.1;;
41229;SDS011;26964;50.428;19.218;2023-12-14T02:47:09;52.0;;;26.7;;
41229;SDS011;26964;50.428;19.218;2023-12-14T02:48:07;43.9;;;24.4;;
41229;SDS011;26964;50.428;19.218;2023-12-14T02:49:07;48.2;;;24.6;;
41229;SDS011;26964;50.428;19.218;2023-12-14T02:50:07;43.7;;;24.7;;
41229;SDS011;26964;50.428;19.218;2023-12-14T02:51:07;42.8;;;24.4;;
41229;SDS011;26964;50.428;19.218;2023-12-14T02:52:07;44.2;;;24.3;;
41229;SDS011;26964;50.428;19.218;2023-12-14T02:53:07;41.4;;;24.0;;
41229;SDS011;26964;50.428;19.218;2023-12-14T02:54:07;41.8;;;23.8;;
41229;SDS011;26964;50.428;19.218;2023-12-14T02:55:07;40.3;;;22.4;;
41229;SDS011;26964;50.428;19.218;2023-12-14T02:56:08;41.8;;;23.0;;
41229;SDS011;26964;50.428;19.218;2023-12-14T02:57:07;41.4;;;22.9;;
41229;SDS011;26964;50.428;19.218;2023-12-14T02:58:07;42.8;;;24.8;;
41229;SDS011;26964;50.428;19.218;2023-12-14T02:59:07;43.6;;;22.7;;
41229;SDS011;26964;50.428;19.218;2023-12-14T03:00:07;44.0;;;24.1;;
41229;SDS011;26964;50.428;19.218;2023-12-14T03:01:07;43.2;;;23.4;;
41229;SDS011;26964;50.428;19.218;2023-12-14T03:02:07;43.6;;;24.3;;
41229;SDS011;26964;50.428;19.218;2023-12-14T03:03:07;38.6;;;21.7;;
41229;SDS011;26964;50.428;19.218;2023-12-14T03:04:07;41.8;;;23.0;;
41229;SDS011;26964;50.428;19.218;2023-12-14T03:05:07;42.8;;;23.5;;
41229;SDS011;26964;50.428;19.218;2023-12-14T03:06:07;44.0;;;24.2;;
41229;SDS011;26964;50.428;19.218;2023-12-14T03:07:07;40.0;;;23.8;;
41229;SDS011;26964;50.428;19.218;2023-12-14T03:08:09;42.5;;;23.9;;
41229;SDS011;26964;50.428;19.218;2023-12-14T03:09:07;44.2;;;23.5;;
41229;SDS011;26964;50.428;19.218;2023-12-14T03:10:07;42.3;;;24.0;;
41229;SDS011;26964;50.428;19.218;2023-12-14T03:11:07;43.6;;;23.2;;
41229;SDS011;26964;50.428;19.218;2023-12-14T03:12:07;37.5;;;21.5;;
41229;SDS011;26964;50.428;19.218;2023-12-14T03:13:07;43.1;;;25.0;;
41229;SDS011;26964;50.428;19.218;2023-12-14T03:14:07;42.3;;;24.1;;
41229;SDS011;26964;50.428;19.218;2023-12-14T03:15:07;44.1;;;24.2;;
41229;SDS011;26964;50.428;19.218;2023-12-14T03:16:07;41.4;;;23.2;;
41229;SDS011;26964;50.428;19.218;2023-12-14T03:17:07;42.0;;;24.8;;
41229;SDS011;26964;50.428;19.218;2023-12-14T03:18:07;41.2;;;23.9;;
41229;SDS011;26964;50.428;19.218;2023-12-14T03:19:07;42.4;;;23.3;;
41229;SDS011;26964;50.428;19.218;2023-12-14T03:20:07;41.0;;;23.5;;
41229;SDS011;26964;50.428;19.218;2023-12-14T03:21:07;41.3;;;22.8;;
41229;SDS011;26964;50.428;19.218;2023-12-14T03:22:07;42.4;;;23.2;;
41229;SDS011;26964;50.428;19.218;2023-12-14T03:23:07;41.7;;;24.0;;
41229;SDS011;26964;50.428;19.218;2023-12-14T03:24:07;39.3;;;23.1;;
41229;SDS011;26964;50.428;19.218;2023-12-14T03:25:08;40.5;;;23.6;;
41229;SDS011;26964;50.428;19.218;2023-12-14T03:26:07;40.5;;;23.5;;
41229;SDS011;26964;50.428;19.218;2023-12-14T03:27:07;41.4;;;24.4;;
41229;SDS011;26964;50.428;19.218;2023-12-14T03:28:07;44.0;;;25.6;;
41229;SDS011;26964;50.428;19.218;2023-12-14T03:29:09;41.4;;;23.7;;
41229;SDS011;26964;50.428;19.218;2023-12-14T03:30:07;43.4;;;24.8;;
41229;SDS011;26964;50.428;19.218;2023-12-14T03:31:07;42.9;;;23.2;;
41229;SDS011;26964;50.428;19.218;2023-12-14T03:32:07;43.2;;;22.5;;
41229;SDS011;26964;50.428;19.218;2023-12-14T03:33:07;40.1;;;23.7;;
41229;SDS011;26964;50.428;19.218;2023-12-14T03:34:07;38.6;;;21.1;;
41229;SDS011;26964;50.428;19.218;2023-12-14T03:35:07;36.8;;;21.1;;
41229;SDS011;26964;50.428;19.218;2023-12-14T03:36:07;34.9;;;20.3;;
41229;SDS011;26964;50.428;19.218;2023-12-14T03:37:07;35.3;;;20.5;;
41229;SDS011;26964;50.428;19.218;2023-12-14T03:38:07;33.5;;;20.4;;
41229;SDS011;26964;50.428;19.218;2023-12-14T03:39:07;32.8;;;20.2;;
41229;SDS011;26964;50.428;19.218;2023-12-14T03:40:07;32.2;;;19.6;;
41229;SDS011;26964;50.428;19.218;2023-12-14T03:41:07;34.0;;;20.1;;
41229;SDS011;26964;50.428;19.218;2023-12-14T03:42:07;35.9;;;21.1;;
41229;SDS011;26964;50.428;19.218;2023-12-14T03:43:07;36.6;;;21.7;;
41229;SDS011;26964;50.428;19.218;2023-12-14T03:44:07;35.0;;;21.0;;
41229;SDS011;26964;50.428;19.218;2023-12-14T03:45:07;34.5;;;20.7;;
41229;SDS011;26964;50.428;19.218;2023-12-14T03:46:07;34.1;;;20.3;;
41229;SDS011;26964;50.428;19.218;2023-12-14T03:47:07;33.2;;;21.0;;
41229;SDS011;26964;50.428;19.218;2023-12-14T03:48:07;30.5;;;18.7;;
41229;SDS011;26964;50.428;19.218;2023-12-14T03:49:07;33.0;;;20.3;;
41229;SDS011;26964;50.428;19.218;2023-12-14T03:50:10;35.3;;;20.6;;
41229;SDS011;26964;50.428;19.218;2023-12-14T03:51:07;34.7;;;20.8;;
41229;SDS011;26964;50.428;19.218;2023-12-14T03:52:07;30.8;;;19.3;;
41229;SDS011;26964;50.428;19.218;2023-12-14T03:53:07;32.1;;;19.7;;
41229;SDS011;26964;50.428;19.218;2023-12-14T03:54:07;33.6;;;20.3;;
41229;SDS011;26964;50.428;19.218;2023-12-14T03:55:07;32.0;;;20.6;;
41229;SDS011;26964;50.428;19.218;2023-12-14T03:56:07;33.1;;;20.2;;
41229;SDS011;26964;50.428;19.218;2023-12-14T03:57:07;29.6;;;19.2;;
41229;SDS011;26964;50.428;19.218;2023-12-14T03:58:07;34.1;;;19.3;;
41229;SDS011;26964;50.428;19.218;2023-12-14T03:59:07;32.5;;;20.5;;
41229;SDS011;26964;50.428;19.218;2023-12-14T04:00:07;31.9;;;20.0;;
41229;SDS011;26964;50.428;19.218;2023-12-14T04:01:07;30.3;;;19.1;;
41229;SDS011;26964;50.428;19.218;2023-12-14T04:02:07;30.7;;;18.4;;
41229;SDS011;26964;50.428;19.218;2023-12-14T04:03:07;29.9;;;18.6;;
41229;SDS011;26964;50.428;19.218;2023-12-14T04:04:07;31.6;;;20.2;;
41229;SDS011;26964;50.428;19.218;2023-12-14T04:05:07;29.8;;;19.0;;
41229;SDS011;26964;50.428;19.218;2023-12-14T04:06:07;30.9;;;18.9;;
41229;SDS011;26964;50.428;19.218;2023-12-14T04:07:07;28.8;;;19.3;;
41229;SDS011;26964;50.428;19.218;2023-12-14T04:08:07;28.1;;;17.9;;
41229;SDS011;26964;50.428;19.218;2023-12-14T04:09:07;31.4;;;18.6;;
41229;SDS011;26964;50.428;19.218;2023-12-14T04:10:07;27.7;;;18.7;;
41229;SDS011;26964;50.428;19.218;2023-12-14T04:11:09;29.4;;;18.1;;
41229;SDS011;26964;50.428;19.218;2023-12-14T04:12:07;31.1;;;19.3;;
41229;SDS011;26964;50.428;19.218;2023-12-14T04:13:07;26.5;;;17.6;;
41229;SDS011;26964;50.428;19.218;2023-12-14T04:14:07;28.5;;;18.6;;
41229;SDS011;26964;50.428;19.218;2023-12-14T04:15:07;29.2;;;19.5;;
41229;SDS011;26964;50.428;19.218;2023-12-14T04:16:07;27.5;;;17.0;;
41229;SDS011;26964;50.428;19.218;2023-12-14T04:17:07;27.8;;;17.8;;
41229;SDS011;26964;50.428;19.218;2023-12-14T04:18:07;27.8;;;17.3;;
41229;SDS011;26964;50.428;19.218;2023-12-14T04:19:07;27.1;;;17.7;;
41229;SDS011;26964;50.428;19.218;2023-12-14T04:20:07;28.2;;;17.4;;
41229;SDS011;26964;50.428;19.218;2023-12-14T04:21:07;27.7;;;17.4;;
41229;SDS011;26964;50.428;19.218;2023-12-14T04:22:07;25.9;;;16.7;;
41229;SDS011;26964;50.428;19.218;2023-12-14T04:23:07;27.1;;;17.6;;
41229;SDS011;26964;50.428;19.218;2023-12-14T04:24:07;26.9;;;16.9;;
41229;SDS011;26964;50.428;19.218;2023-12-14T04:25:07;25.7;;;17.8;;
41229;SDS011;26964;50.428;19.218;2023-12-14T04:26:07;26.8;;;16.4;;
41229;SDS011;26964;50.428;19.218;2023-12-14T04:27:07;24.5;;;16.5;;
41229;SDS011;26964;50.428;19.218;2023-12-14T04:28:07;27.3;;;16.8;;
41229;SDS011;26964;50.428;19.218;2023-12-14T04:29:07;27.0;;;17.4;;
41229;SDS011;26964;50.428;19.218;2023-12-14T04:30:07;27.9;;;17.3;;
41229;SDS011;26964;50.428;19.218;2023-12-14T04:31:07;23.8;;;15.8;;
41229;SDS011;26964;50.428;19.218;2023-12-14T04:32:10;25.0;;;16.0;;
41229;SDS011;26964;50.428;19.218;2023-12-14T04:33:07;26.5;;;17.1;;
41229;SDS011;26964;50.428;19.218;2023-12-14T04:34:07;24.2;;;15.2;;
41229;SDS011;26964;50.428;19.218;2023-12-14T04:35:07;26.1;;;16.3;;
41229;SDS011;26964;50.428;19.218;2023-12-14T04:36:07;23.1;;;15.7;;
41229;SDS011;26964;50.428;19.218;2023-12-14T04:37:07;22.6;;;15.8;;
41229;SDS011;26964;50.428;19.218;2023-12-14T04:38:07;26.5;;;16.6;;
41229;SDS011;26964;50.428;19.218;2023-12-14T04:39:07;26.7;;;17.3;;
41229;SDS011;26964;50.428;19.218;2023-12-14T04:40:07;25.3;;;16.1;;
41229;SDS011;26964;50.428;19.218;2023-12-14T04:41:07;25.5;;;16.1;;
41229;SDS011;26964;50.428;19.218;2023-12-14T04:42:07;24.6;;;16.7;;
41229;SDS011;26964;50.428;19.218;2023-12-14T04:43:07;27.6;;;17.5;;
41229;SDS011;26964;50.428;19.218;2023-12-14T04:44:07;23.5;;;16.1;;
41229;SDS011;26964;50.428;19.218;2023-12-14T04:45:07;29.0;;;16.0;;
41229;SDS011;26964;50.428;19.218;2023-12-14T04:46:07;23.9;;;15.6;;
41229;SDS011;26964;50.428;19.218;2023-12-14T04:47:07;23.9;;;15.5;;
41229;SDS011;26964;50.428;19.218;2023-12-14T04:48:07;27.1;;;16.9;;
41229;SDS011;26964;50.428;19.218;2023-12-14T04:49:07;24.8;;;16.4;;
41229;SDS011;26964;50.428;19.218;2023-12-14T04:50:07;27.2;;;15.8;;
41229;SDS011;26964;50.428;19.218;2023-12-14T04:52:07;25.0;;;15.2;;
41229;SDS011;26964;50.428;19.218;2023-12-14T04:53:10;27.1;;;16.1;;
41229;SDS011;26964;50.428;19.218;2023-12-14T04:54:07;25.4;;;16.1;;
41229;SDS011;26964;50.428;19.218;2023-12-14T04:55:07;22.4;;;14.9;;
41229;SDS011;26964;50.428;19.218;2023-12-14T04:57:07;23.9;;;15.8;;
41229;SDS011;26964;50.428;19.218;2023-12-14T04:58:07;24.2;;;14.7;;
41229;SDS011;26964;50.428;19.218;2023-12-14T04:59:07;22.4;;;14.8;;
41229;SDS011;26964;50.428;19.218;2023-12-14T05:00:07;23.8;;;15.0;;
41229;SDS011;26964;50.428;19.218;2023-12-14T05:01:07;24.7;;;15.4;;
41229;SDS011;26964;50.428;19.218;2023-12-14T05:02:07;22.2;;;14.8;;
41229;SDS011;26964;50.428;19.218;2023-12-14T05:03:07;25.8;;;15.3;;
41229;SDS011;26964;50.428;19.218;2023-12-14T05:04:07;23.1;;;15.0;;
41229;SDS011;26964;50.428;19.218;2023-12-14T05:05:07;23.1;;;15.9;;
41229;SDS011;26964;50.428;19.218;2023-12-14T05:06:07;22.3;;;15.9;;
41229;SDS011;26964;50.428;19.218;2023-12-14T05:07:07;23.3;;;15.7;;
41229;SDS011;26964;50.428;19.218;2023-12-14T05:08:07;25.7;;;15.8;;
41229;SDS011;26964;50.428;19.218;2023-12-14T05:09:07;25.4;;;16.8;;
41229;SDS011;26964;50.428;19.218;2023-12-14T05:10:07;21.2;;;15.2;;
41229;SDS011;26964;50.428;19.218;2023-12-14T05:11:07;25.3;;;15.1;;
41229;SDS011;26964;50.428;19.218;2023-12-14T05:12:07;25.4;;;15.7;;
41229;SDS011;26964;50.428;19.218;2023-12-14T05:13:07;22.5;;;15.0;;
41229;SDS011;26964;50.428;19.218;2023-12-14T05:14:10;25.2;;;15.4;;
41229;SDS011;26964;50.428;19.218;2023-12-14T05:15:07;23.3;;;15.2;;
41229;SDS011;26964;50.428;19.218;2023-12-14T05:16:12;24.6;;;16.2;;
41229;SDS011;26964;50.428;19.218;2023-12-14T05:17:07;22.4;;;15.0;;
41229;SDS011;26964;50.428;19.218;2023-12-14T05:18:07;23.5;;;14.5;;
41229;SDS011;26964;50.428;19.218;2023-12-14T05:19:07;23.4;;;15.2;;
41229;SDS011;26964;50.428;19.218;2023-12-14T05:20:07;26.0;;;16.2;;
41229;SDS011;26964;50.428;19.218;2023-12-14T05:21:07;23.1;;;15.0;;
41229;SDS011;26964;50.428;19.218;2023-12-14T05:22:07;25.0;;;17.0;;
41229;SDS011;26964;50.428;19.218;2023-12-14T05:23:07;24.3;;;16.4;;
41229;SDS011;26964;50.428;19.218;2023-12-14T05:24:07;28.6;;;17.2;;
41229;SDS011;26964;50.428;19.218;2023-12-14T05:25:07;25.5;;;16.6;;
41229;SDS011;26964;50.428;19.218;2023-12-14T05:26:07;27.2;;;16.3;;
41229;SDS011;26964;50.428;19.218;2023-12-14T05:27:07;25.7;;;17.0;;
41229;SDS011;26964;50.428;19.218;2023-12-14T05:28:07;26.6;;;17.0;;
41229;SDS011;26964;50.428;19.218;2023-12-14T05:29:07;26.3;;;16.5;;
41229;SDS011;26964;50.428;19.218;2023-12-14T05:30:07;26.2;;;16.6;;
41229;SDS011;26964;50.428;19.218;2023-12-14T05:31:07;23.5;;;14.9;;
41229;SDS011;26964;50.428;19.218;2023-12-14T05:32:07;25.1;;;16.1;;
41229;SDS011;26964;50.428;19.218;2023-12-14T05:33:07;27.5;;;17.2;;
41229;SDS011;26964;50.428;19.218;2023-12-14T05:34:07;25.4;;;16.5;;
41229;SDS011;26964;50.428;19.218;2023-12-14T05:35:10;26.1;;;15.9;;
41229;SDS011;26964;50.428;19.218;2023-12-14T05:36:07;28.9;;;17.0;;
41229;SDS011;26964;50.428;19.218;2023-12-14T05:37:07;26.9;;;16.7;;
41229;SDS011;26964;50.428;19.218;2023-12-14T05:38:07;24.4;;;16.0;;
41229;SDS011;26964;50.428;19.218;2023-12-14T05:39:07;24.5;;;15.7;;
41229;SDS011;26964;50.428;19.218;2023-12-14T05:40:07;26.4;;;17.1;;
41229;SDS011;26964;50.428;19.218;2023-12-14T05:41:07;25.9;;;16.4;;
41229;SDS011;26964;50.428;19.218;2023-12-14T05:42:07;25.0;;;16.4;;
41229;SDS011;26964;50.428;19.218;2023-12-14T05:43:07;27.1;;;17.0;;
41229;SDS011;26964;50.428;19.218;2023-12-14T05:44:07;24.7;;;16.2;;
41229;SDS011;26964;50.428;19.218;2023-12-14T05:45:07;26.3;;;16.2;;
41229;SDS011;26964;50.428;19.218;2023-12-14T05:46:07;27.7;;;16.5;;
41229;SDS011;26964;50.428;19.218;2023-12-14T05:47:07;24.9;;;17.2;;
41229;SDS011;26964;50.428;19.218;2023-12-14T05:48:07;25.0;;;17.0;;
41229;SDS011;26964;50.428;19.218;2023-12-14T05:49:07;28.0;;;17.1;;
41229;SDS011;26964;50.428;19.218;2023-12-14T05:50:07;28.9;;;17.6;;
41229;SDS011;26964;50.428;19.218;2023-12-14T05:51:07;27.5;;;17.3;;
41229;SDS011;26964;50.428;19.218;2023-12-14T05:52:07;23.8;;;15.8;;
41229;SDS011;26964;50.428;19.218;2023-12-14T05:53:07;25.5;;;15.4;;
41229;SDS011;26964;50.428;19.218;2023-12-14T05:54:07;22.4;;;15.1;;
41229;SDS011;26964;50.428;19.218;2023-12-14T05:55:07;21.3;;;14.3;;
41229;SDS011;26964;50.428;19.218;2023-12-14T05:56:10;22.3;;;14.7;;
41229;SDS011;26964;50.428;19.218;2023-12-14T05:57:07;22.2;;;14.4;;